sensor_id;sensor_type;location;lat;lon;timestamp;P1;durP1;ratioP1;P2;durP2;ratioP2
58152;SDS011;43967;51.634;5.566;2024-01-27T00:00:48;7.50;;;1.93;;
58152;SDS011;43967;51.634;5.566;2024-01-27T00:06:09;6.88;;;2.10;;
58152;SDS011;43967;51.634;5.566;2024-01-27T00:11:30;7.97;;;2.50;;
58152;SDS011;43967;51.634;5.566;2024-01-27T00:16:51;8.77;;;2.30;;
58152;SDS011;43967;51.634;5.566;2024-01-27T00:22:13;8.52;;;2.25;;
58152;SDS011;43967;51.634;5.566;2024-01-27T00:27:34;7.85;;;2.10;;
58152;SDS011;43967;51.634;5.566;2024-01-27T00:32:56;7.07;;;2.17;;
58152;SDS011;43967;51.634;5.566;2024-01-27T00:38:17;8.63;;;2.38;;
58152;SDS011;43967;51.634;5.566;2024-01-27T00:43:38;6.55;;;1.90;;
58152;SDS011;43967;51.634;5.566;2024-01-27T00:49:00;7.73;;;2.30;;
58152;SDS011;43967;51.634;5.566;2024-01-27T00:54:21;8.40;;;2.23;;
58152;SDS011;43967;51.634;5.566;2024-01-27T00:59:42;8.32;;;2.47;;
58152;SDS011;43967;51.634;5.566;2024-01-27T01:05:03;8.63;;;2.65;;
58152;SDS011;43967;51.634;5.566;2024-01-27T01:10:25;8.60;;;2.30;;
58152;SDS011;43967;51.634;5.566;2024-01-27T01:15:46;7.18;;;2.08;;
58152;SDS011;43967;51.634;5.566;2024-01-27T01:21:07;7.13;;;2.10;;
58152;SDS011;43967;51.634;5.566;2024-01-27T01:26:29;7.80;;;2.07;;
58152;SDS011;43967;51.634;5.566;2024-01-27T01:31:50;7.65;;;2.00;;
58152;SDS011;43967;51.634;5.566;2024-01-27T01:37:11;15.07;;;3.28;;
58152;SDS011;43967;51.634;5.566;2024-01-27T01:42:32;7.77;;;2.67;;
58152;SDS011;43967;51.634;5.566;2024-01-27T01:47:54;8.57;;;2.60;;
58152;SDS011;43967;51.634;5.566;2024-01-27T01:53:15;7.65;;;2.28;;
58152;SDS011;43967;51.634;5.566;2024-01-27T01:58:36;6.97;;;2.58;;
58152;SDS011;43967;51.634;5.566;2024-01-27T02:03:58;7.20;;;2.30;;
58152;SDS011;43967;51.634;5.566;2024-01-27T02:09:19;8.85;;;2.28;;
58152;SDS011;43967;51.634;5.566;2024-01-27T02:14:40;8.40;;;2.28;;
58152;SDS011;43967;51.634;5.566;2024-01-27T02:20:01;6.67;;;2.00;;
58152;SDS011;43967;51.634;5.566;2024-01-27T02:25:23;7.70;;;2.20;;
58152;SDS011;43967;51.634;5.566;2024-01-27T02:30:44;9.60;;;2.60;;
58152;SDS011;43967;51.634;5.566;2024-01-27T02:36:06;8.50;;;2.77;;
58152;SDS011;43967;51.634;5.566;2024-01-27T02:41:27;9.60;;;2.50;;
58152;SDS011;43967;51.634;5.566;2024-01-27T02:46:48;7.85;;;2.40;;
58152;SDS011;43967;51.634;5.566;2024-01-27T02:52:09;6.93;;;1.92;;
58152;SDS011;43967;51.634;5.566;2024-01-27T02:57:31;7.30;;;2.00;;
58152;SDS011;43967;51.634;5.566;2024-01-27T03:02:52;6.88;;;2.10;;
58152;SDS011;43967;51.634;5.566;2024-01-27T03:08:13;7.40;;;2.42;;
58152;SDS011;43967;51.634;5.566;2024-01-27T03:13:34;8.57;;;2.60;;
58152;SDS011;43967;51.634;5.566;2024-01-27T03:18:56;7.88;;;2.38;;
58152;SDS011;43967;51.634;5.566;2024-01-27T03:24:17;7.53;;;2.20;;
58152;SDS011;43967;51.634;5.566;2024-01-27T03:29:38;8.57;;;2.57;;
58152;SDS011;43967;51.634;5.566;2024-01-27T03:35:00;7.10;;;2.53;;
58152;SDS011;43967;51.634;5.566;2024-01-27T03:40:21;7.45;;;2.25;;
58152;SDS011;43967;51.634;5.566;2024-01-27T03:45:42;7.60;;;2.78;;
58152;SDS011;43967;51.634;5.566;2024-01-27T03:51:04;7.30;;;2.27;;
58152;SDS011;43967;51.634;5.566;2024-01-27T03:56:25;8.48;;;2.30;;
58152;SDS011;43967;51.634;5.566;2024-01-27T04:01:47;8.13;;;2.47;;
58152;SDS011;43967;51.634;5.566;2024-01-27T04:07:08;7.73;;;2.33;;
58152;SDS011;43967;51.634;5.566;2024-01-27T04:12:29;7.75;;;2.17;;
58152;SDS011;43967;51.634;5.566;2024-01-27T04:17:51;8.07;;;2.47;;
58152;SDS011;43967;51.634;5.566;2024-01-27T04:23:12;10.13;;;3.10;;
58152;SDS011;43967;51.634;5.566;2024-01-27T04:28:33;8.23;;;2.40;;
58152;SDS011;43967;51.634;5.566;2024-01-27T04:33:54;8.98;;;2.67;;
58152;SDS011;43967;51.634;5.566;2024-01-27T04:39:16;8.80;;;2.30;;
58152;SDS011;43967;51.634;5.566;2024-01-27T04:44:39;7.33;;;2.17;;
58152;SDS011;43967;51.634;5.566;2024-01-27T04:50:02;7.78;;;2.42;;
58152;SDS011;43967;51.634;5.566;2024-01-27T04:55:24;7.55;;;2.00;;
58152;SDS011;43967;51.634;5.566;2024-01-27T05:00:47;7.07;;;2.30;;
58152;SDS011;43967;51.634;5.566;2024-01-27T05:06:08;8.38;;;2.40;;
58152;SDS011;43967;51.634;5.566;2024-01-27T05:11:31;7.57;;;2.30;;
58152;SDS011;43967;51.634;5.566;2024-01-27T05:16:53;7.57;;;2.57;;
58152;SDS011;43967;51.634;5.566;2024-01-27T05:22:14;6.93;;;2.50;;
58152;SDS011;43967;51.634;5.566;2024-01-27T05:27:37;8.30;;;2.45;;
58152;SDS011;43967;51.634;5.566;2024-01-27T05:32:58;8.10;;;2.97;;
58152;SDS011;43967;51.634;5.566;2024-01-27T05:38:19;8.00;;;2.33;;
58152;SDS011;43967;51.634;5.566;2024-01-27T05:43:41;8.30;;;2.75;;
58152;SDS011;43967;51.634;5.566;2024-01-27T05:49:02;7.63;;;2.50;;
58152;SDS011;43967;51.634;5.566;2024-01-27T05:54:24;7.07;;;2.70;;
58152;SDS011;43967;51.634;5.566;2024-01-27T05:59:45;8.57;;;2.45;;
58152;SDS011;43967;51.634;5.566;2024-01-27T06:05:07;6.82;;;2.22;;
58152;SDS011;43967;51.634;5.566;2024-01-27T06:10:28;7.03;;;2.47;;
58152;SDS011;43967;51.634;5.566;2024-01-27T06:15:49;7.30;;;2.67;;
58152;SDS011;43967;51.634;5.566;2024-01-27T06:21:11;7.70;;;2.75;;
58152;SDS011;43967;51.634;5.566;2024-01-27T06:26:32;8.25;;;2.80;;
58152;SDS011;43967;51.634;5.566;2024-01-27T06:31:53;7.47;;;2.13;;
58152;SDS011;43967;51.634;5.566;2024-01-27T06:37:15;7.45;;;2.50;;
58152;SDS011;43967;51.634;5.566;2024-01-27T06:42:36;6.78;;;2.60;;
58152;SDS011;43967;51.634;5.566;2024-01-27T06:48:06;8.03;;;2.83;;
58152;SDS011;43967;51.634;5.566;2024-01-27T06:53:28;7.18;;;2.45;;
58152;SDS011;43967;51.634;5.566;2024-01-27T06:58:49;7.30;;;2.45;;
58152;SDS011;43967;51.634;5.566;2024-01-27T07:04:10;6.80;;;2.60;;
58152;SDS011;43967;51.634;5.566;2024-01-27T07:09:31;7.53;;;2.53;;
58152;SDS011;43967;51.634;5.566;2024-01-27T07:14:54;7.68;;;2.42;;
58152;SDS011;43967;51.634;5.566;2024-01-27T07:20:15;7.95;;;2.67;;
58152;SDS011;43967;51.634;5.566;2024-01-27T07:25:37;8.63;;;2.53;;
58152;SDS011;43967;51.634;5.566;2024-01-27T07:30:58;7.15;;;2.30;;
58152;SDS011;43967;51.634;5.566;2024-01-27T07:36:19;7.93;;;2.20;;
58152;SDS011;43967;51.634;5.566;2024-01-27T07:41:41;8.37;;;2.97;;
58152;SDS011;43967;51.634;5.566;2024-01-27T07:47:02;8.38;;;3.03;;
58152;SDS011;43967;51.634;5.566;2024-01-27T07:52:24;7.50;;;2.58;;
58152;SDS011;43967;51.634;5.566;2024-01-27T07:57:45;8.53;;;3.10;;
58152;SDS011;43967;51.634;5.566;2024-01-27T08:03:06;7.90;;;3.10;;
58152;SDS011;43967;51.634;5.566;2024-01-27T08:08:27;9.38;;;3.28;;
58152;SDS011;43967;51.634;5.566;2024-01-27T08:13:49;9.70;;;3.08;;
58152;SDS011;43967;51.634;5.566;2024-01-27T08:19:12;7.57;;;2.77;;
58152;SDS011;43967;51.634;5.566;2024-01-27T08:24:35;7.55;;;2.65;;
58152;SDS011;43967;51.634;5.566;2024-01-27T08:29:56;7.82;;;2.60;;
58152;SDS011;43967;51.634;5.566;2024-01-27T08:35:18;8.00;;;2.87;;
58152;SDS011;43967;51.634;5.566;2024-01-27T08:40:39;8.88;;;2.83;;
58152;SDS011;43967;51.634;5.566;2024-01-27T08:46:00;8.50;;;3.10;;
58152;SDS011;43967;51.634;5.566;2024-01-27T08:51:22;8.10;;;2.50;;
58152;SDS011;43967;51.634;5.566;2024-01-27T08:56:43;8.43;;;2.47;;
58152;SDS011;43967;51.634;5.566;2024-01-27T09:02:06;7.22;;;2.30;;
58152;SDS011;43967;51.634;5.566;2024-01-27T09:07:28;7.93;;;2.95;;
58152;SDS011;43967;51.634;5.566;2024-01-27T09:12:49;8.43;;;2.77;;
58152;SDS011;43967;51.634;5.566;2024-01-27T09:18:11;10.07;;;2.90;;
58152;SDS011;43967;51.634;5.566;2024-01-27T09:23:32;8.98;;;3.10;;
58152;SDS011;43967;51.634;5.566;2024-01-27T09:28:53;8.17;;;2.93;;
58152;SDS011;43967;51.634;5.566;2024-01-27T09:34:15;8.38;;;2.30;;
58152;SDS011;43967;51.634;5.566;2024-01-27T09:39:36;8.00;;;2.50;;
58152;SDS011;43967;51.634;5.566;2024-01-27T09:44:57;8.03;;;2.70;;
58152;SDS011;43967;51.634;5.566;2024-01-27T09:50:21;8.20;;;2.73;;
58152;SDS011;43967;51.634;5.566;2024-01-27T09:55:43;9.05;;;2.70;;
58152;SDS011;43967;51.634;5.566;2024-01-27T10:01:04;7.97;;;2.63;;
58152;SDS011;43967;51.634;5.566;2024-01-27T10:06:28;7.63;;;2.43;;
58152;SDS011;43967;51.634;5.566;2024-01-27T10:11:49;9.07;;;2.78;;
58152;SDS011;43967;51.634;5.566;2024-01-27T10:17:11;7.47;;;2.75;;
58152;SDS011;43967;51.634;5.566;2024-01-27T10:22:39;11.97;;;3.43;;
58152;SDS011;43967;51.634;5.566;2024-01-27T10:28:00;10.60;;;2.92;;
58152;SDS011;43967;51.634;5.566;2024-01-27T10:33:22;9.05;;;2.92;;
58152;SDS011;43967;51.634;5.566;2024-01-27T10:38:43;11.07;;;2.67;;
58152;SDS011;43967;51.634;5.566;2024-01-27T10:44:04;8.73;;;3.00;;
58152;SDS011;43967;51.634;5.566;2024-01-27T10:49:27;8.38;;;2.85;;
58152;SDS011;43967;51.634;5.566;2024-01-27T10:54:52;9.60;;;3.10;;
58152;SDS011;43967;51.634;5.566;2024-01-27T11:00:13;8.30;;;2.60;;
58152;SDS011;43967;51.634;5.566;2024-01-27T11:05:36;11.85;;;2.80;;
58152;SDS011;43967;51.634;5.566;2024-01-27T11:10:58;8.20;;;2.50;;
58152;SDS011;43967;51.634;5.566;2024-01-27T11:16:20;8.43;;;2.27;;
58152;SDS011;43967;51.634;5.566;2024-01-27T11:21:43;8.35;;;2.70;;
58152;SDS011;43967;51.634;5.566;2024-01-27T11:27:05;8.77;;;2.28;;
58152;SDS011;43967;51.634;5.566;2024-01-27T11:32:27;11.20;;;3.13;;
58152;SDS011;43967;51.634;5.566;2024-01-27T11:37:48;7.77;;;2.30;;
58152;SDS011;43967;51.634;5.566;2024-01-27T11:43:11;9.63;;;2.20;;
58152;SDS011;43967;51.634;5.566;2024-01-27T11:48:32;7.43;;;2.60;;
58152;SDS011;43967;51.634;5.566;2024-01-27T11:54:02;8.77;;;2.50;;
58152;SDS011;43967;51.634;5.566;2024-01-27T11:59:23;7.40;;;2.22;;
58152;SDS011;43967;51.634;5.566;2024-01-27T12:04:45;8.10;;;2.47;;
58152;SDS011;43967;51.634;5.566;2024-01-27T12:10:07;8.50;;;2.27;;
58152;SDS011;43967;51.634;5.566;2024-01-27T12:15:29;9.10;;;2.40;;
58152;SDS011;43967;51.634;5.566;2024-01-27T12:20:54;8.95;;;2.33;;
58152;SDS011;43967;51.634;5.566;2024-01-27T12:26:19;9.43;;;2.70;;
58152;SDS011;43967;51.634;5.566;2024-01-27T12:31:45;13.37;;;2.20;;
58152;SDS011;43967;51.634;5.566;2024-01-27T12:37:10;11.88;;;3.00;;
58152;SDS011;43967;51.634;5.566;2024-01-27T12:42:32;10.75;;;2.90;;
58152;SDS011;43967;51.634;5.566;2024-01-27T12:47:53;11.43;;;2.87;;
58152;SDS011;43967;51.634;5.566;2024-01-27T12:53:15;9.52;;;2.90;;
58152;SDS011;43967;51.634;5.566;2024-01-27T12:58:36;9.45;;;2.13;;
58152;SDS011;43967;51.634;5.566;2024-01-27T13:03:58;13.47;;;2.40;;
58152;SDS011;43967;51.634;5.566;2024-01-27T13:09:19;12.20;;;2.50;;
58152;SDS011;43967;51.634;5.566;2024-01-27T13:14:40;13.18;;;2.65;;
58152;SDS011;43967;51.634;5.566;2024-01-27T13:20:02;8.90;;;2.30;;
58152;SDS011;43967;51.634;5.566;2024-01-27T13:25:23;9.53;;;2.43;;
58152;SDS011;43967;51.634;5.566;2024-01-27T13:30:44;9.20;;;2.47;;
58152;SDS011;43967;51.634;5.566;2024-01-27T13:36:06;12.32;;;2.10;;
58152;SDS011;43967;51.634;5.566;2024-01-27T13:41:27;8.97;;;2.00;;
58152;SDS011;43967;51.634;5.566;2024-01-27T13:46:49;10.35;;;2.13;;
58152;SDS011;43967;51.634;5.566;2024-01-27T13:52:10;9.80;;;2.22;;
58152;SDS011;43967;51.634;5.566;2024-01-27T13:57:35;7.47;;;2.17;;
58152;SDS011;43967;51.634;5.566;2024-01-27T14:02:56;11.40;;;2.50;;
58152;SDS011;43967;51.634;5.566;2024-01-27T14:08:19;11.10;;;2.35;;
58152;SDS011;43967;51.634;5.566;2024-01-27T14:13:41;8.07;;;2.27;;
58152;SDS011;43967;51.634;5.566;2024-01-27T14:19:02;9.40;;;2.30;;
58152;SDS011;43967;51.634;5.566;2024-01-27T14:24:23;7.18;;;2.42;;
58152;SDS011;43967;51.634;5.566;2024-01-27T14:29:51;9.50;;;2.67;;
58152;SDS011;43967;51.634;5.566;2024-01-27T14:41:07;8.50;;;2.65;;
58152;SDS011;43967;51.634;5.566;2024-01-27T14:46:28;9.32;;;2.50;;
58152;SDS011;43967;51.634;5.566;2024-01-27T14:51:50;12.17;;;2.40;;
58152;SDS011;43967;51.634;5.566;2024-01-27T14:57:11;9.00;;;2.20;;
58152;SDS011;43967;51.634;5.566;2024-01-27T15:02:33;12.25;;;2.33;;
58152;SDS011;43967;51.634;5.566;2024-01-27T15:07:54;9.33;;;2.40;;
58152;SDS011;43967;51.634;5.566;2024-01-27T15:13:15;8.20;;;2.17;;
58152;SDS011;43967;51.634;5.566;2024-01-27T15:18:37;9.25;;;2.17;;
58152;SDS011;43967;51.634;5.566;2024-01-27T15:23:58;8.20;;;2.40;;
58152;SDS011;43967;51.634;5.566;2024-01-27T15:29:20;10.87;;;2.33;;
58152;SDS011;43967;51.634;5.566;2024-01-27T15:34:41;10.32;;;2.10;;
58152;SDS011;43967;51.634;5.566;2024-01-27T15:40:02;7.55;;;2.20;;
58152;SDS011;43967;51.634;5.566;2024-01-27T15:45:24;7.60;;;2.17;;
58152;SDS011;43967;51.634;5.566;2024-01-27T15:50:45;10.25;;;2.28;;
58152;SDS011;43967;51.634;5.566;2024-01-27T15:56:06;16.50;;;2.72;;
58152;SDS011;43967;51.634;5.566;2024-01-27T16:01:27;8.23;;;2.33;;
58152;SDS011;43967;51.634;5.566;2024-01-27T16:06:49;10.07;;;2.10;;
58152;SDS011;43967;51.634;5.566;2024-01-27T16:12:10;9.80;;;2.28;;
58152;SDS011;43967;51.634;5.566;2024-01-27T16:17:31;7.97;;;2.10;;
58152;SDS011;43967;51.634;5.566;2024-01-27T16:22:53;8.43;;;2.00;;
58152;SDS011;43967;51.634;5.566;2024-01-27T16:28:14;7.55;;;2.25;;
58152;SDS011;43967;51.634;5.566;2024-01-27T16:33:35;11.82;;;2.00;;
58152;SDS011;43967;51.634;5.566;2024-01-27T16:38:56;9.17;;;2.33;;
58152;SDS011;43967;51.634;5.566;2024-01-27T16:44:18;8.55;;;2.20;;
58152;SDS011;43967;51.634;5.566;2024-01-27T16:49:39;7.32;;;2.08;;
58152;SDS011;43967;51.634;5.566;2024-01-27T16:55:00;9.57;;;2.57;;
58152;SDS011;43967;51.634;5.566;2024-01-27T17:00:21;8.87;;;2.23;;
58152;SDS011;43967;51.634;5.566;2024-01-27T17:05:43;8.57;;;2.85;;
58152;SDS011;43967;51.634;5.566;2024-01-27T17:11:04;8.30;;;2.50;;
58152;SDS011;43967;51.634;5.566;2024-01-27T17:16:26;10.47;;;2.70;;
58152;SDS011;43967;51.634;5.566;2024-01-27T17:21:47;9.07;;;2.50;;
58152;SDS011;43967;51.634;5.566;2024-01-27T17:27:08;9.35;;;2.38;;
58152;SDS011;43967;51.634;5.566;2024-01-27T17:32:30;9.20;;;2.40;;
58152;SDS011;43967;51.634;5.566;2024-01-27T17:37:52;10.07;;;2.83;;
58152;SDS011;43967;51.634;5.566;2024-01-27T17:43:13;9.10;;;2.97;;
58152;SDS011;43967;51.634;5.566;2024-01-27T17:48:35;8.47;;;2.77;;
58152;SDS011;43967;51.634;5.566;2024-01-27T17:53:56;8.80;;;2.50;;
58152;SDS011;43967;51.634;5.566;2024-01-27T17:59:19;10.55;;;2.80;;
58152;SDS011;43967;51.634;5.566;2024-01-27T18:04:40;8.07;;;2.60;;
58152;SDS011;43967;51.634;5.566;2024-01-27T18:10:02;8.07;;;2.83;;
58152;SDS011;43967;51.634;5.566;2024-01-27T18:15:23;8.45;;;2.60;;
58152;SDS011;43967;51.634;5.566;2024-01-27T18:20:44;9.40;;;2.70;;
58152;SDS011;43967;51.634;5.566;2024-01-27T18:26:05;8.40;;;2.70;;
58152;SDS011;43967;51.634;5.566;2024-01-27T18:31:28;8.52;;;2.47;;
58152;SDS011;43967;51.634;5.566;2024-01-27T18:36:49;7.68;;;2.40;;
58152;SDS011;43967;51.634;5.566;2024-01-27T18:42:11;9.03;;;3.20;;
58152;SDS011;43967;51.634;5.566;2024-01-27T18:47:33;7.93;;;2.97;;
58152;SDS011;43967;51.634;5.566;2024-01-27T18:52:54;8.77;;;3.00;;
58152;SDS011;43967;51.634;5.566;2024-01-27T18:58:15;8.98;;;2.78;;
58152;SDS011;43967;51.634;5.566;2024-01-27T19:03:37;9.60;;;2.93;;
58152;SDS011;43967;51.634;5.566;2024-01-27T19:08:59;6.70;;;2.58;;
58152;SDS011;43967;51.634;5.566;2024-01-27T19:14:20;8.02;;;2.70;;
58152;SDS011;43967;51.634;5.566;2024-01-27T19:19:41;8.33;;;2.63;;
58152;SDS011;43967;51.634;5.566;2024-01-27T19:25:03;7.75;;;2.67;;
58152;SDS011;43967;51.634;5.566;2024-01-27T19:30:25;8.07;;;3.00;;
58152;SDS011;43967;51.634;5.566;2024-01-27T19:35:46;8.77;;;3.23;;
58152;SDS011;43967;51.634;5.566;2024-01-27T19:41:09;8.40;;;3.17;;
58152;SDS011;43967;51.634;5.566;2024-01-27T19:46:31;9.00;;;3.17;;
58152;SDS011;43967;51.634;5.566;2024-01-27T19:51:52;8.30;;;3.00;;
58152;SDS011;43967;51.634;5.566;2024-01-27T19:57:13;7.60;;;2.87;;
58152;SDS011;43967;51.634;5.566;2024-01-27T20:02:34;8.10;;;3.53;;
58152;SDS011;43967;51.634;5.566;2024-01-27T20:07:56;8.20;;;2.90;;
58152;SDS011;43967;51.634;5.566;2024-01-27T20:13:17;8.37;;;3.20;;
58152;SDS011;43967;51.634;5.566;2024-01-27T20:18:38;8.85;;;3.05;;
58152;SDS011;43967;51.634;5.566;2024-01-27T20:23:59;9.00;;;3.10;;
58152;SDS011;43967;51.634;5.566;2024-01-27T20:29:21;9.03;;;3.80;;
58152;SDS011;43967;51.634;5.566;2024-01-27T20:34:42;8.50;;;3.03;;
58152;SDS011;43967;51.634;5.566;2024-01-27T20:40:03;9.93;;;3.40;;
58152;SDS011;43967;51.634;5.566;2024-01-27T20:45:25;7.95;;;3.13;;
58152;SDS011;43967;51.634;5.566;2024-01-27T20:50:46;7.77;;;3.13;;
58152;SDS011;43967;51.634;5.566;2024-01-27T20:56:07;9.40;;;3.13;;
58152;SDS011;43967;51.634;5.566;2024-01-27T21:01:29;8.52;;;3.30;;
58152;SDS011;43967;51.634;5.566;2024-01-27T21:06:50;8.83;;;3.60;;
58152;SDS011;43967;51.634;5.566;2024-01-27T21:12:11;8.55;;;3.28;;
58152;SDS011;43967;51.634;5.566;2024-01-27T21:17:32;9.25;;;3.30;;
58152;SDS011;43967;51.634;5.566;2024-01-27T21:22:54;7.70;;;3.20;;
58152;SDS011;43967;51.634;5.566;2024-01-27T21:28:15;9.90;;;3.87;;
58152;SDS011;43967;51.634;5.566;2024-01-27T21:33:36;9.20;;;3.40;;
58152;SDS011;43967;51.634;5.566;2024-01-27T21:38:58;8.52;;;3.83;;
58152;SDS011;43967;51.634;5.566;2024-01-27T21:44:19;8.37;;;3.30;;
58152;SDS011;43967;51.634;5.566;2024-01-27T21:49:40;8.25;;;3.38;;
58152;SDS011;43967;51.634;5.566;2024-01-27T21:55:02;9.13;;;3.30;;
58152;SDS011;43967;51.634;5.566;2024-01-27T22:00:23;9.50;;;3.60;;
58152;SDS011;43967;51.634;5.566;2024-01-27T22:05:45;9.55;;;3.60;;
58152;SDS011;43967;51.634;5.566;2024-01-27T22:11:06;8.18;;;3.63;;
58152;SDS011;43967;51.634;5.566;2024-01-27T22:16:28;8.43;;;3.90;;
58152;SDS011;43967;51.634;5.566;2024-01-27T22:21:49;7.80;;;3.07;;
58152;SDS011;43967;51.634;5.566;2024-01-27T22:27:11;8.15;;;3.55;;
58152;SDS011;43967;51.634;5.566;2024-01-27T22:32:32;9.63;;;3.70;;
58152;SDS011;43967;51.634;5.566;2024-01-27T22:37:53;8.07;;;2.93;;
58152;SDS011;43967;51.634;5.566;2024-01-27T22:43:15;8.80;;;3.50;;
58152;SDS011;43967;51.634;5.566;2024-01-27T22:48:36;8.18;;;3.42;;
58152;SDS011;43967;51.634;5.566;2024-01-27T22:53:58;9.70;;;3.70;;
58152;SDS011;43967;51.634;5.566;2024-01-27T22:59:20;8.75;;;3.42;;
58152;SDS011;43967;51.634;5.566;2024-01-27T23:04:41;9.23;;;4.10;;
58152;SDS011;43967;51.634;5.566;2024-01-27T23:10:04;8.63;;;4.07;;
58152;SDS011;43967;51.634;5.566;2024-01-27T23:15:26;8.07;;;3.70;;
58152;SDS011;43967;51.634;5.566;2024-01-27T23:20:48;9.05;;;3.65;;
58152;SDS011;43967;51.634;5.566;2024-01-27T23:26:09;9.10;;;3.58;;
58152;SDS011;43967;51.634;5.566;2024-01-27T23:31:31;8.63;;;3.50;;
58152;SDS011;43967;51.634;5.566;2024-01-27T23:36:52;8.95;;;3.70;;
58152;SDS011;43967;51.634;5.566;2024-01-27T23:42:13;8.70;;;3.70;;
58152;SDS011;43967;51.634;5.566;2024-01-27T23:47:34;8.90;;;3.93;;
58152;SDS011;43967;51.634;5.566;2024-01-27T23:52:56;7.80;;;3.45;;
58152;SDS011;43967;51.634;5.566;2024-01-27T23:58:17;10.07;;;4.05;;
